sensor_id;sensor_type;location;lat;lon;timestamp;pressure;altitude;pressure_sealevel;temperature;humidity
48027;BME280;50714;49.208;5.364;2024-02-23T00:07:47;97481.81;;;6.41;100.00
48027;BME280;50714;49.208;5.364;2024-02-23T00:17:48;97475.50;;;6.35;100.00
48027;BME280;50714;49.208;5.364;2024-02-23T00:27:48;97486.69;;;6.32;100.00
48027;BME280;50714;49.208;5.364;2024-02-23T00:37:48;97486.00;;;6.37;100.00
48027;BME280;50714;49.208;5.364;2024-02-23T00:47:49;97487.97;;;6.41;100.00
48027;BME280;50714;49.208;5.364;2024-02-23T00:57:49;97494.84;;;6.37;100.00
48027;BME280;50714;49.208;5.364;2024-02-23T01:07:49;97498.66;;;6.30;100.00
48027;BME280;50714;49.208;5.364;2024-02-23T01:17:49;97511.22;;;6.29;100.00
48027;BME280;50714;49.208;5.364;2024-02-23T01:27:50;97519.03;;;6.31;100.00
48027;BME280;50714;49.208;5.364;2024-02-23T01:37:50;97507.50;;;6.30;100.00
48027;BME280;50714;49.208;5.364;2024-02-23T01:47:50;97512.88;;;6.30;100.00
48027;BME280;50714;49.208;5.364;2024-02-23T01:57:51;97532.44;;;6.31;100.00
48027;BME280;50714;49.208;5.364;2024-02-23T02:07:53;97523.34;;;6.32;100.00
48027;BME280;50714;49.208;5.364;2024-02-23T02:17:58;97528.13;;;6.30;100.00
48027;BME280;50714;49.208;5.364;2024-02-23T02:27:59;97525.28;;;6.25;100.00
48027;BME280;50714;49.208;5.364;2024-02-23T02:37:59;97527.53;;;6.28;100.00
48027;BME280;50714;49.208;5.364;2024-02-23T02:48:00;97527.75;;;6.26;100.00
48027;BME280;50714;49.208;5.364;2024-02-23T02:58:03;97515.63;;;6.24;100.00
48027;BME280;50714;49.208;5.364;2024-02-23T03:08:04;97512.13;;;6.23;100.00
48027;BME280;50714;49.208;5.364;2024-02-23T03:18:04;97502.06;;;6.19;100.00
48027;BME280;50714;49.208;5.364;2024-02-23T03:28:04;97503.72;;;6.20;100.00
48027;BME280;50714;49.208;5.364;2024-02-23T03:38:05;97501.03;;;6.20;100.00
48027;BME280;50714;49.208;5.364;2024-02-23T03:48:05;97514.78;;;6.23;100.00
48027;BME280;50714;49.208;5.364;2024-02-23T03:58:06;97514.56;;;6.25;100.00
48027;BME280;50714;49.208;5.364;2024-02-23T04:08:06;97481.69;;;6.18;100.00
48027;BME280;50714;49.208;5.364;2024-02-23T04:18:06;97482.28;;;6.20;100.00
48027;BME280;50714;49.208;5.364;2024-02-23T04:28:07;97472.38;;;6.20;100.00
48027;BME280;50714;49.208;5.364;2024-02-23T04:38:07;97478.56;;;6.21;100.00
48027;BME280;50714;49.208;5.364;2024-02-23T04:48:07;97467.47;;;6.17;100.00
48027;BME280;50714;49.208;5.364;2024-02-23T04:58:08;97464.19;;;6.15;100.00
48027;BME280;50714;49.208;5.364;2024-02-23T05:08:08;97461.09;;;6.00;100.00
48027;BME280;50714;49.208;5.364;2024-02-23T05:18:09;97452.69;;;5.96;100.00
48027;BME280;50714;49.208;5.364;2024-02-23T05:28:09;97433.13;;;5.96;100.00
48027;BME280;50714;49.208;5.364;2024-02-23T05:38:10;97431.72;;;5.93;100.00
48027;BME280;50714;49.208;5.364;2024-02-23T05:48:10;97420.34;;;5.79;100.00
48027;BME280;50714;49.208;5.364;2024-02-23T05:58:11;97416.19;;;5.65;100.00
48027;BME280;50714;49.208;5.364;2024-02-23T06:08:13;97409.53;;;5.68;100.00
48027;BME280;50714;49.208;5.364;2024-02-23T06:18:14;97417.06;;;5.77;100.00
48027;BME280;50714;49.208;5.364;2024-02-23T06:28:14;97419.44;;;5.86;100.00
48027;BME280;50714;49.208;5.364;2024-02-23T06:38:14;97423.97;;;5.85;100.00
48027;BME280;50714;49.208;5.364;2024-02-23T06:48:14;97420.94;;;5.81;100.00
48027;BME280;50714;49.208;5.364;2024-02-23T06:58:15;97410.66;;;5.78;100.00
48027;BME280;50714;49.208;5.364;2024-02-23T07:08:16;97425.69;;;5.79;100.00
48027;BME280;50714;49.208;5.364;2024-02-23T07:18:17;97440.47;;;5.82;100.00
48027;BME280;50714;49.208;5.364;2024-02-23T07:28:17;97451.50;;;5.92;100.00
48027;BME280;50714;49.208;5.364;2024-02-23T07:38:19;97463.31;;;6.21;100.00
48027;BME280;50714;49.208;5.364;2024-02-23T07:48:20;97455.56;;;6.31;100.00
48027;BME280;50714;49.208;5.364;2024-02-23T07:58:20;97456.84;;;6.29;100.00
48027;BME280;50714;49.208;5.364;2024-02-23T08:08:21;97446.53;;;6.44;100.00
48027;BME280;50714;49.208;5.364;2024-02-23T08:18:23;97430.03;;;7.70;100.00
48027;BME280;50714;49.208;5.364;2024-02-23T08:28:24;97424.97;;;10.75;100.00
48027;BME280;50714;49.208;5.364;2024-02-23T08:38:24;97422.94;;;11.56;88.07
48027;BME280;50714;49.208;5.364;2024-02-23T08:48:25;97431.31;;;11.55;85.50
48027;BME280;50714;49.208;5.364;2024-02-23T08:58:25;97429.13;;;10.34;84.57
48027;BME280;50714;49.208;5.364;2024-02-23T09:08:25;97427.03;;;9.59;86.61
48027;BME280;50714;49.208;5.364;2024-02-23T09:18:25;97432.09;;;8.88;90.72
48027;BME280;50714;49.208;5.364;2024-02-23T09:28:26;97441.38;;;8.24;95.12
48027;BME280;50714;49.208;5.364;2024-02-23T09:38:26;97433.97;;;8.31;97.09
48027;BME280;50714;49.208;5.364;2024-02-23T09:48:27;97429.00;;;8.23;97.67
48027;BME280;50714;49.208;5.364;2024-02-23T09:58:28;97431.34;;;8.08;97.55
48027;BME280;50714;49.208;5.364;2024-02-23T10:08:30;97421.09;;;8.45;100.00
48027;BME280;50714;49.208;5.364;2024-02-23T10:18:30;97406.50;;;10.62;96.42
48027;BME280;50714;49.208;5.364;2024-02-23T10:28:31;97415.03;;;14.02;86.74
48027;BME280;50714;49.208;5.364;2024-02-23T10:38:32;97414.81;;;13.88;77.43
48027;BME280;50714;49.208;5.364;2024-02-23T10:48:32;97415.94;;;14.95;80.85
48027;BME280;50714;49.208;5.364;2024-02-23T10:58:34;97419.69;;;13.86;69.00
48027;BME280;50714;49.208;5.364;2024-02-23T11:08:35;97421.03;;;12.77;68.87
48027;BME280;50714;49.208;5.364;2024-02-23T11:18:39;97418.69;;;10.97;72.21
48027;BME280;50714;49.208;5.364;2024-02-23T11:38:44;97418.69;;;9.99;77.21
48027;BME280;50714;49.208;5.364;2024-02-23T11:48:48;97414.31;;;10.37;77.32
48027;BME280;50714;49.208;5.364;2024-02-23T11:58:54;97399.53;;;10.39;77.52
48027;BME280;50714;49.208;5.364;2024-02-23T12:08:55;97398.81;;;10.76;75.97
48027;BME280;50714;49.208;5.364;2024-02-23T12:18:56;97382.78;;;10.15;75.32
48027;BME280;50714;49.208;5.364;2024-02-23T12:29:00;97372.69;;;10.06;74.31
48027;BME280;50714;49.208;5.364;2024-02-23T12:39:01;97364.56;;;10.49;75.25
48027;BME280;50714;49.208;5.364;2024-02-23T12:49:02;97355.91;;;10.47;74.07
48027;BME280;50714;49.208;5.364;2024-02-23T12:59:02;97342.63;;;10.41;73.09
48027;BME280;50714;49.208;5.364;2024-02-23T13:09:02;97336.38;;;10.35;74.95
48027;BME280;50714;49.208;5.364;2024-02-23T13:19:04;97315.56;;;10.57;74.11
48027;BME280;50714;49.208;5.364;2024-02-23T13:29:04;97343.22;;;10.21;76.73
48027;BME280;50714;49.208;5.364;2024-02-23T13:39:04;97347.63;;;9.62;87.72
48027;BME280;50714;49.208;5.364;2024-02-23T13:49:07;97326.16;;;9.28;88.92
48027;BME280;50714;49.208;5.364;2024-02-23T13:59:09;97313.66;;;9.00;91.27
48027;BME280;50714;49.208;5.364;2024-02-23T14:09:11;97303.13;;;8.99;90.45
48027;BME280;50714;49.208;5.364;2024-02-23T14:19:11;97292.94;;;9.17;90.27
48027;BME280;50714;49.208;5.364;2024-02-23T14:29:11;97279.34;;;9.29;89.06
48027;BME280;50714;49.208;5.364;2024-02-23T14:39:12;97267.97;;;9.44;87.52
48027;BME280;50714;49.208;5.364;2024-02-23T14:49:13;97280.22;;;9.35;86.95
48027;BME280;50714;49.208;5.364;2024-02-23T14:59:13;97274.19;;;9.44;86.77
48027;BME280;50714;49.208;5.364;2024-02-23T15:09:13;97269.53;;;9.18;86.59
48027;BME280;50714;49.208;5.364;2024-02-23T15:19:14;97274.72;;;8.86;84.05
48027;BME280;50714;49.208;5.364;2024-02-23T15:29:14;97261.63;;;8.73;84.26
48027;BME280;50714;49.208;5.364;2024-02-23T15:39:14;97265.94;;;8.74;85.27
48027;BME280;50714;49.208;5.364;2024-02-23T15:49:14;97252.50;;;8.74;86.21
48027;BME280;50714;49.208;5.364;2024-02-23T15:59:18;97252.50;;;8.74;87.65
48027;BME280;50714;49.208;5.364;2024-02-23T16:09:18;97234.31;;;8.64;86.45
48027;BME280;50714;49.208;5.364;2024-02-23T16:19:18;97237.75;;;8.60;87.13
48027;BME280;50714;49.208;5.364;2024-02-23T16:29:19;97250.38;;;8.59;87.81
48027;BME280;50714;49.208;5.364;2024-02-23T16:39:20;97270.81;;;8.60;89.51
48027;BME280;50714;49.208;5.364;2024-02-23T16:49:20;97284.75;;;8.40;90.53
48027;BME280;50714;49.208;5.364;2024-02-23T16:59:20;97298.44;;;8.10;93.21
48027;BME280;50714;49.208;5.364;2024-02-23T17:09:20;97315.22;;;7.89;94.02
48027;BME280;50714;49.208;5.364;2024-02-23T17:19:21;97327.53;;;7.73;96.69
48027;BME280;50714;49.208;5.364;2024-02-23T17:29:25;97314.84;;;7.69;97.00
48027;BME280;50714;49.208;5.364;2024-02-23T17:39:25;97319.97;;;7.70;98.95
48027;BME280;50714;49.208;5.364;2024-02-23T17:49:26;97334.31;;;7.64;99.32
48027;BME280;50714;49.208;5.364;2024-02-23T17:59:26;97350.00;;;7.56;99.67
48027;BME280;50714;49.208;5.364;2024-02-23T18:09:27;97363.66;;;7.42;100.00
48027;BME280;50714;49.208;5.364;2024-02-23T18:19:27;97348.50;;;7.36;100.00
48027;BME280;50714;49.208;5.364;2024-02-23T18:29:28;97349.00;;;7.22;99.93
48027;BME280;50714;49.208;5.364;2024-02-23T18:39:28;97342.78;;;7.09;100.00
48027;BME280;50714;49.208;5.364;2024-02-23T18:49:28;97338.13;;;6.93;100.00
48027;BME280;50714;49.208;5.364;2024-02-23T18:59:31;97349.56;;;6.89;100.00
48027;BME280;50714;49.208;5.364;2024-02-23T19:09:32;97342.78;;;6.86;100.00
48027;BME280;50714;49.208;5.364;2024-02-23T19:19:32;97342.09;;;6.79;100.00
48027;BME280;50714;49.208;5.364;2024-02-23T19:29:32;97332.53;;;6.71;100.00
48027;BME280;50714;49.208;5.364;2024-02-23T19:39:33;97351.75;;;6.68;100.00
48027;BME280;50714;49.208;5.364;2024-02-23T19:49:33;97367.50;;;6.88;100.00
48027;BME280;50714;49.208;5.364;2024-02-23T19:59:33;97375.78;;;6.75;100.00
48027;BME280;50714;49.208;5.364;2024-02-23T20:09:36;97386.84;;;6.78;100.00
48027;BME280;50714;49.208;5.364;2024-02-23T20:19:37;97390.00;;;6.87;100.00
48027;BME280;50714;49.208;5.364;2024-02-23T20:29:37;97380.81;;;6.83;100.00
48027;BME280;50714;49.208;5.364;2024-02-23T20:39:37;97376.72;;;6.80;100.00
48027;BME280;50714;49.208;5.364;2024-02-23T20:49:38;97386.72;;;6.85;100.00
48027;BME280;50714;49.208;5.364;2024-02-23T20:59:38;97397.00;;;6.88;100.00
48027;BME280;50714;49.208;5.364;2024-02-23T21:09:38;97398.28;;;6.85;100.00
48027;BME280;50714;49.208;5.364;2024-02-23T21:19:39;97380.91;;;6.76;100.00
48027;BME280;50714;49.208;5.364;2024-02-23T21:29:40;97389.63;;;6.72;100.00
48027;BME280;50714;49.208;5.364;2024-02-23T21:39:40;97400.59;;;6.70;100.00
48027;BME280;50714;49.208;5.364;2024-02-23T21:49:41;97393.38;;;6.71;100.00
48027;BME280;50714;49.208;5.364;2024-02-23T21:59:43;97397.53;;;6.67;100.00
48027;BME280;50714;49.208;5.364;2024-02-23T22:09:43;97401.28;;;6.66;100.00
48027;BME280;50714;49.208;5.364;2024-02-23T22:19:45;97421.66;;;6.67;100.00
48027;BME280;50714;49.208;5.364;2024-02-23T22:29:45;97432.25;;;6.62;100.00
48027;BME280;50714;49.208;5.364;2024-02-23T22:39:45;97428.88;;;6.66;100.00
48027;BME280;50714;49.208;5.364;2024-02-23T22:49:47;97426.13;;;6.73;100.00
48027;BME280;50714;49.208;5.364;2024-02-23T22:59:47;97422.41;;;6.74;100.00
48027;BME280;50714;49.208;5.364;2024-02-23T23:09:47;97427.97;;;6.72;100.00
48027;BME280;50714;49.208;5.364;2024-02-23T23:19:47;97427.25;;;6.65;100.00
48027;BME280;50714;49.208;5.364;2024-02-23T23:29:48;97433.06;;;6.62;100.00
48027;BME280;50714;49.208;5.364;2024-02-23T23:39:49;97447.19;;;6.58;100.00
48027;BME280;50714;49.208;5.364;2024-02-23T23:49:49;97446.81;;;6.54;100.00
48027;BME280;50714;49.208;5.364;2024-02-23T23:59:49;97448.91;;;6.52;100.00
